createdAt,value
2023-04-27T00:03:11.202Z,8.90
2023-04-27T00:06:53.159Z,8.90
2023-04-27T00:10:35.177Z,8.90
2023-04-27T00:14:16.948Z,8.80
2023-04-27T00:17:58.838Z,8.80
2023-04-27T00:21:40.771Z,8.80
2023-04-27T00:25:22.677Z,8.70
2023-04-27T00:29:04.477Z,8.70
2023-04-27T00:32:46.364Z,8.70
2023-04-27T00:36:28.164Z,8.60
2023-04-27T00:40:10.861Z,8.60
2023-04-27T00:43:52.664Z,8.50
2023-04-27T00:47:35.169Z,8.50
2023-04-27T00:51:17.099Z,8.40
2023-04-27T00:54:59.940Z,8.40
2023-04-27T00:58:41.714Z,8.40
2023-04-27T01:02:23.711Z,8.30
2023-04-27T01:06:05.868Z,8.30
2023-04-27T01:09:47.647Z,8.20
2023-04-27T01:13:29.604Z,8.20
2023-04-27T01:17:11.902Z,8.20
2023-04-27T01:20:53.761Z,8.10
2023-04-27T01:24:35.598Z,8.00
2023-04-27T01:28:17.458Z,8.00
2023-04-27T01:31:59.325Z,7.90
2023-04-27T01:35:41.169Z,7.90
2023-04-27T01:39:23.188Z,7.90
2023-04-27T01:43:05.029Z,7.90
2023-04-27T01:46:46.945Z,7.90
2023-04-27T01:50:28.820Z,7.80
2023-04-27T01:54:10.635Z,7.80
2023-04-27T01:57:52.414Z,7.80
2023-04-27T02:01:34.591Z,7.80
2023-04-27T02:05:16.807Z,7.80
2023-04-27T02:08:58.606Z,7.80
2023-04-27T02:12:40.640Z,7.80
2023-04-27T02:16:22.592Z,7.80
2023-04-27T02:20:07.043Z,7.80
2023-04-27T02:23:48.802Z,7.90
2023-04-27T02:27:30.631Z,8.00
2023-04-27T02:31:14.153Z,8.10
2023-04-27T02:34:56.846Z,8.10
2023-04-27T02:38:38.641Z,8.20
2023-04-27T02:42:21.066Z,8.30
2023-04-27T02:46:04.014Z,8.40
2023-04-27T02:49:45.857Z,8.50
2023-04-27T02:53:27.634Z,8.50
2023-04-27T02:57:09.404Z,8.60
2023-04-27T03:00:55.732Z,8.60
2023-04-27T03:04:38.365Z,8.70
2023-04-27T03:08:20.445Z,8.70
2023-04-27T03:12:02.712Z,8.80
2023-04-27T03:15:44.576Z,8.90
2023-04-27T03:19:26.414Z,8.90
2023-04-27T03:23:08.184Z,8.90
2023-04-27T03:26:50.009Z,9.00
2023-04-27T03:30:31.803Z,9.00
2023-04-27T03:34:13.629Z,9.00
2023-04-27T03:37:55.477Z,9.10
2023-04-27T03:41:37.294Z,9.10
2023-04-27T03:45:19.311Z,9.10
2023-04-27T03:49:01.465Z,9.20
2023-04-27T03:52:43.253Z,9.20
2023-04-27T03:56:25.241Z,9.20
2023-04-27T04:00:11.590Z,9.20
2023-04-27T04:03:53.592Z,9.20
2023-04-27T04:07:35.588Z,9.30
2023-04-27T04:11:17.403Z,9.30
2023-04-27T04:14:59.270Z,9.30
2023-04-27T04:18:41.191Z,9.30
2023-04-27T04:22:23.038Z,9.30
2023-04-27T04:26:05.718Z,9.30
2023-04-27T04:29:48.209Z,9.30
2023-04-27T04:33:29.998Z,9.30
2023-04-27T04:37:11.913Z,9.30
2023-04-27T04:40:53.872Z,9.30
2023-04-27T04:44:35.883Z,9.30
2023-04-27T04:48:18.153Z,9.40
2023-04-27T04:51:59.958Z,9.40
2023-04-27T04:55:41.868Z,9.40
2023-04-27T04:59:23.693Z,9.40
2023-04-27T05:03:07.612Z,9.40
2023-04-27T05:06:49.842Z,9.40
2023-04-27T05:10:31.801Z,9.40
2023-04-27T05:14:13.565Z,9.40
2023-04-27T05:17:55.432Z,9.50
2023-04-27T05:21:37.248Z,9.40
2023-04-27T05:25:19.144Z,9.50
2023-04-27T05:29:00.927Z,9.60
2023-04-27T05:32:42.796Z,9.60
2023-04-27T05:36:24.651Z,9.60
2023-04-27T05:40:09.715Z,9.60
2023-04-27T05:43:51.663Z,9.70
2023-04-27T05:47:33.458Z,9.70
2023-04-27T05:51:15.411Z,9.70
2023-04-27T05:55:01.143Z,9.80
2023-04-27T05:58:43.073Z,9.80
2023-04-27T06:02:25.003Z,9.80
2023-04-27T06:06:06.956Z,9.90
2023-04-27T06:09:48.757Z,9.90
2023-04-27T06:13:32.458Z,9.90
2023-04-27T06:17:14.285Z,10.00
2023-04-27T06:21:01.639Z,10.00
2023-04-27T06:24:43.666Z,10.00
2023-04-27T06:28:25.839Z,10.00
2023-04-27T06:32:07.865Z,10.10
2023-04-27T06:35:49.746Z,10.10
2023-04-27T06:39:32.158Z,10.10
2023-04-27T06:43:13.999Z,10.10
2023-04-27T06:46:55.819Z,10.10
2023-04-27T06:50:37.609Z,10.20
2023-04-27T06:54:19.692Z,10.20
2023-04-27T06:58:02.683Z,10.20
2023-04-27T07:01:44.597Z,10.30
2023-04-27T07:05:27.246Z,10.30
2023-04-27T07:09:20.134Z,10.40
2023-04-27T07:13:09.585Z,10.50
2023-04-27T07:16:51.889Z,10.50
2023-04-27T07:20:33.813Z,10.60
2023-04-27T07:24:15.638Z,10.70
2023-04-27T07:27:59.741Z,10.80
2023-04-27T07:31:41.740Z,10.90
2023-04-27T07:35:23.783Z,11.00
2023-04-27T07:39:08.085Z,11.10
2023-04-27T07:42:50.917Z,11.20
2023-04-27T07:46:32.846Z,11.30
2023-04-27T07:50:16.594Z,11.30
2023-04-27T07:53:58.413Z,11.20
2023-04-27T07:57:40.488Z,11.20
2023-04-27T08:01:22.478Z,11.30
2023-04-27T08:05:04.884Z,11.30
2023-04-27T08:08:47.087Z,11.30
2023-04-27T08:12:28.911Z,11.40
2023-04-27T08:16:11.255Z,11.40
2023-04-27T08:19:53.223Z,11.50
2023-04-27T08:23:37.121Z,11.50
2023-04-27T08:27:19.005Z,11.50
2023-04-27T08:31:00.823Z,11.60
2023-04-27T08:34:44.785Z,11.70
2023-04-27T08:38:26.601Z,11.70
2023-04-27T08:42:12.642Z,11.80
2023-04-27T08:45:54.557Z,11.90
2023-04-27T08:49:38.886Z,12.00
2023-04-27T08:53:22.412Z,12.00
2023-04-27T08:57:12.671Z,12.00
2023-04-27T09:00:54.504Z,12.10
2023-04-27T09:04:40.815Z,12.20
2023-04-27T09:08:22.700Z,12.30
2023-04-27T09:12:17.967Z,12.60
2023-04-27T09:15:59.815Z,12.80
2023-04-27T09:19:41.687Z,13.00
2023-04-27T09:23:34.465Z,13.20
2023-04-27T09:27:23.181Z,13.40
2023-04-27T09:31:05.696Z,13.50
2023-04-27T09:34:47.560Z,13.60
2023-04-27T09:38:30.027Z,13.70
2023-04-27T09:42:13.381Z,13.80
2023-04-27T09:45:56.018Z,13.80
2023-04-27T09:49:38.893Z,14.00
2023-04-27T09:53:26.346Z,14.00
2023-04-27T09:57:46.771Z,14.00
2023-04-27T10:01:37.785Z,13.90
2023-04-27T10:05:32.817Z,13.70
2023-04-27T10:09:15.089Z,13.60
2023-04-27T10:13:01.734Z,13.50
2023-04-27T10:16:54.692Z,13.40
2023-04-27T10:20:37.836Z,13.40
2023-04-27T10:24:19.747Z,13.30
2023-04-27T10:28:03.191Z,13.30
2023-04-27T10:31:48.350Z,13.30
2023-04-27T10:35:38.419Z,13.20
2023-04-27T10:39:35.962Z,13.20
2023-04-27T10:43:27.704Z,13.30
2023-04-27T10:47:17.285Z,13.30
2023-04-27T10:51:01.233Z,13.40
2023-04-27T10:54:46.590Z,13.50
2023-04-27T10:58:37.817Z,13.50
2023-04-27T11:02:29.747Z,13.60
2023-04-27T11:06:11.677Z,13.60
2023-04-27T11:09:53.713Z,13.60
2023-04-27T11:13:35.618Z,13.50
2023-04-27T11:17:27.617Z,13.40
2023-04-27T11:21:17.692Z,13.40
2023-04-27T11:24:59.628Z,13.40
2023-04-27T11:28:42.322Z,13.30
2023-04-27T11:32:25.755Z,13.30
2023-04-27T11:36:21.644Z,13.30
2023-04-27T11:40:04.784Z,13.20
2023-04-27T11:43:49.147Z,13.20
2023-04-27T11:47:33.537Z,13.20
2023-04-27T11:51:15.462Z,13.20
2023-04-27T11:54:57.454Z,13.20
2023-04-27T11:58:40.483Z,13.10
2023-04-27T12:02:22.803Z,13.00
2023-04-27T12:06:21.264Z,13.00
2023-04-27T12:10:07.980Z,12.90
2023-04-27T12:13:49.779Z,12.90
2023-04-27T12:17:31.664Z,12.90
2023-04-27T12:21:14.327Z,12.80
2023-04-27T12:24:56.209Z,12.80
2023-04-27T12:28:38.078Z,12.70
2023-04-27T12:32:20.157Z,12.70
2023-04-27T12:36:02.079Z,12.60
2023-04-27T12:39:43.951Z,12.50
2023-04-27T12:43:26.370Z,12.40
2023-04-27T12:47:08.182Z,12.40
2023-04-27T12:50:50.317Z,12.40
2023-04-27T12:54:32.079Z,12.30
2023-04-27T12:58:14.788Z,12.30
2023-04-27T13:01:56.746Z,12.30
2023-04-27T13:05:38.598Z,12.30
2023-04-27T13:09:21.202Z,12.20
2023-04-27T13:13:03.762Z,12.10
2023-04-27T13:16:45.793Z,12.10
2023-04-27T13:20:27.687Z,12.10
2023-04-27T13:24:09.590Z,12.00
2023-04-27T13:27:51.714Z,12.00
2023-04-27T13:31:33.575Z,12.00
2023-04-27T13:35:15.846Z,12.00
2023-04-27T13:38:57.710Z,12.10
2023-04-27T13:42:40.392Z,12.10
2023-04-27T13:46:22.348Z,12.30
2023-04-27T13:50:09.102Z,12.40
2023-04-27T13:53:51.087Z,12.60
2023-04-27T13:57:32.973Z,12.70
2023-04-27T14:01:14.802Z,12.70
2023-04-27T14:04:57.578Z,12.70
2023-04-27T14:08:39.472Z,12.70
2023-04-27T14:12:21.383Z,12.70
2023-04-27T14:16:03.330Z,12.60
2023-04-27T14:19:45.150Z,12.60
2023-04-27T14:23:26.943Z,12.60
2023-04-27T14:27:09.155Z,12.60
2023-04-27T14:30:51.948Z,12.60
2023-04-27T14:34:33.874Z,12.70
2023-04-27T14:38:15.796Z,12.60
2023-04-27T14:41:57.614Z,12.70
2023-04-27T14:45:48.022Z,12.70
2023-04-27T14:49:33.343Z,12.70
2023-04-27T14:53:15.146Z,12.70
2023-04-27T14:56:58.596Z,12.60
2023-04-27T15:00:40.760Z,12.60
2023-04-27T15:04:23.325Z,12.50
2023-04-27T15:08:05.244Z,12.40
2023-04-27T15:11:47.166Z,12.30
2023-04-27T15:15:29.393Z,12.20
2023-04-27T15:19:11.934Z,12.20
2023-04-27T15:22:54.390Z,12.10
2023-04-27T15:26:36.259Z,12.10
2023-04-27T15:30:18.045Z,12.10
2023-04-27T15:33:59.816Z,12.10
2023-04-27T15:37:41.661Z,12.10
2023-04-27T15:41:23.541Z,12.10
2023-04-27T15:45:08.018Z,12.10
2023-04-27T15:48:51.326Z,12.10
2023-04-27T15:52:33.911Z,12.00
2023-04-27T15:56:16.332Z,12.00
2023-04-27T15:59:58.146Z,11.90
2023-04-27T16:03:40.054Z,12.00
2023-04-27T16:07:22.098Z,12.00
2023-04-27T16:11:04.061Z,12.00
2023-04-27T16:14:45.957Z,12.10
2023-04-27T16:18:27.935Z,12.10
2023-04-27T16:22:09.737Z,12.20
2023-04-27T16:25:51.625Z,12.30
2023-04-27T16:29:33.451Z,12.30
2023-04-27T16:33:15.553Z,12.30
2023-04-27T16:36:57.381Z,12.30
2023-04-27T16:40:39.289Z,12.30
2023-04-27T16:44:21.167Z,12.30
2023-04-27T16:48:11.608Z,12.30
2023-04-27T16:51:54.427Z,12.40
2023-04-27T16:55:36.307Z,12.40
2023-04-27T16:59:18.133Z,12.40
2023-04-27T17:02:59.967Z,12.40
2023-04-27T17:06:42.100Z,12.50
2023-04-27T17:10:25.482Z,12.50
2023-04-27T17:14:07.284Z,12.50
2023-04-27T17:17:49.147Z,12.40
2023-04-27T17:21:32.147Z,12.40
2023-04-27T17:25:13.971Z,12.40
2023-04-27T17:28:59.904Z,12.40
2023-04-27T17:32:41.991Z,12.30
2023-04-27T17:36:23.891Z,12.40
2023-04-27T17:40:09.589Z,12.30
2023-04-27T17:43:51.711Z,12.40
2023-04-27T17:47:33.872Z,12.40
2023-04-27T17:51:15.901Z,12.40
2023-04-27T17:54:57.697Z,12.40
2023-04-27T17:58:39.620Z,12.40
2023-04-27T18:02:21.673Z,12.40
2023-04-27T18:06:03.629Z,12.40
2023-04-27T18:09:45.783Z,12.50
2023-04-27T18:13:27.924Z,12.50
2023-04-27T18:17:09.779Z,12.60
2023-04-27T18:20:51.575Z,12.60
2023-04-27T18:24:33.423Z,12.60
2023-04-27T18:28:15.462Z,12.60
2023-04-27T18:31:58.484Z,12.60
2023-04-27T18:35:40.336Z,12.70
2023-04-27T18:39:22.235Z,12.70
2023-04-27T18:43:04.322Z,12.60
2023-04-27T18:46:46.317Z,12.70
2023-04-27T18:50:28.255Z,12.60
2023-04-27T18:54:10.546Z,12.70
2023-04-27T18:57:53.437Z,12.70
2023-04-27T19:01:37.071Z,12.70
2023-04-27T19:05:20.112Z,12.70
2023-04-27T19:09:02.399Z,12.60
2023-04-27T19:12:44.312Z,12.70
2023-04-27T19:16:26.274Z,12.70
2023-04-27T19:20:09.820Z,12.70
2023-04-27T19:23:52.074Z,12.70
2023-04-27T19:27:33.886Z,12.70
2023-04-27T19:31:16.250Z,12.60
2023-04-27T19:34:59.918Z,12.60
2023-04-27T19:38:41.837Z,12.60
2023-04-27T19:42:24.975Z,12.60
2023-04-27T19:46:06.987Z,12.60
2023-04-27T19:49:48.896Z,12.60
2023-04-27T19:53:30.785Z,12.70
2023-04-27T19:57:13.029Z,12.60
2023-04-27T20:00:55.071Z,12.60
2023-04-27T20:04:37.568Z,12.60
2023-04-27T20:08:19.505Z,12.60
2023-04-27T20:12:01.452Z,12.70
2023-04-27T20:15:43.343Z,12.70
2023-04-27T20:19:25.270Z,12.70
2023-04-27T20:23:07.208Z,12.70
2023-04-27T20:26:49.352Z,12.70
2023-04-27T20:30:31.225Z,12.80
2023-04-27T20:34:13.186Z,12.80
2023-04-27T20:37:57.979Z,12.80
2023-04-27T20:41:41.830Z,12.80
2023-04-27T20:45:23.912Z,12.80
2023-04-27T20:49:05.963Z,12.90
2023-04-27T20:52:48.091Z,12.90
2023-04-27T20:56:30.681Z,12.90
2023-04-27T21:00:15.381Z,12.90
2023-04-27T21:03:57.281Z,12.90
2023-04-27T21:07:39.169Z,12.90
2023-04-27T21:11:21.012Z,12.90
2023-04-27T21:15:03.253Z,12.90
2023-04-27T21:18:46.106Z,12.90
2023-04-27T21:22:27.952Z,12.90
2023-04-27T21:26:10.795Z,13.00
2023-04-27T21:29:53.279Z,13.00
2023-04-27T21:33:35.156Z,13.00
2023-04-27T21:37:16.977Z,13.00
2023-04-27T21:40:59.392Z,13.00
2023-04-27T21:44:41.157Z,13.10
2023-04-27T21:48:23.097Z,13.10
2023-04-27T21:52:05.089Z,13.10
2023-04-27T21:55:46.945Z,13.10
2023-04-27T21:59:28.839Z,13.10
2023-04-27T22:03:10.765Z,13.10
2023-04-27T22:06:52.690Z,13.20
2023-04-27T22:10:34.913Z,13.20
2023-04-27T22:14:17.332Z,13.20
2023-04-27T22:17:59.536Z,13.20
2023-04-27T22:21:41.371Z,13.20
2023-04-27T22:25:23.503Z,13.20
2023-04-27T22:29:05.328Z,13.20
2023-04-27T22:32:47.309Z,13.20
2023-04-27T22:36:29.185Z,13.20
2023-04-27T22:40:12.111Z,13.20
2023-04-27T22:43:53.893Z,13.30
2023-04-27T22:47:35.861Z,13.30
2023-04-27T22:51:17.932Z,13.30
2023-04-27T22:55:03.329Z,13.30
2023-04-27T22:58:45.136Z,13.30
2023-04-27T23:02:27.030Z,13.30
2023-04-27T23:06:14.375Z,13.30
2023-04-27T23:10:02.880Z,13.30
2023-04-27T23:13:48.133Z,13.30
2023-04-27T23:17:33.022Z,13.40
2023-04-27T23:21:14.882Z,13.30
2023-04-27T23:24:56.720Z,13.30
2023-04-27T23:28:38.531Z,13.30
2023-04-27T23:32:20.877Z,13.40
2023-04-27T23:36:03.511Z,13.30
2023-04-27T23:39:45.477Z,13.30
2023-04-27T23:43:27.651Z,13.40
2023-04-27T23:47:09.687Z,13.40
2023-04-27T23:51:02.717Z,13.40
2023-04-27T23:54:44.492Z,13.40
2023-04-27T23:58:26.777Z,13.40
